Time;durP1;ratioP1;P1;durP2;ratioP2;P2;SDS_P1;SDS_P2;PMS_P1;PMS_P2;Temp;Humidity;BMP_temperature;BMP_pressure;BME280_temperature;BME280_humidity;BME280_pressure;Samples;Min_cycle;Max_cycle;Signal;HPM_P1;HPM_P2
2023/05/15 00:02:10;;;;;;;1.02;0.98;;;15.90;82.40;;;;;;10909702;32;20019;-73
2023/05/15 00:08:13;;;;;;;2.15;1.27;;;15.80;82.60;;;;;;10909544;32;20058;-73
2023/05/15 00:14:17;;;;;;;2.00;1.10;;;15.80;82.70;;;;;;10906157;32;20401;-73
2023/05/15 00:20:37;;;;;;;;;;;15.80;82.70;;;;;;10910745;32;20073;-73
2023/05/15 00:26:52;;;;;;;1.52;1.23;;;15.70;82.80;;;;;;10908896;32;19945;-73
2023/05/15 00:32:55;;;;;;;5.80;1.75;;;15.60;82.90;;;;;;10908665;32;20023;-73
2023/05/15 00:39:13;;;;;;;1.70;1.10;;;15.60;83.00;;;;;;10896676;32;20065;-72
2023/05/15 00:45:16;;;;;;;2.00;0.88;;;15.70;83.20;;;;;;10908847;32;20011;-72
2023/05/15 00:51:23;;;;;;;1.40;0.93;;;15.70;83.20;;;;;;10908080;32;20030;-73
2023/05/15 00:57:35;;;;;;;1.75;1.30;;;15.60;83.20;;;;;;10909720;32;20370;-73
2023/05/15 01:03:39;;;;;;;7.37;1.92;;;15.60;83.20;;;;;;10908231;32;20023;-72
2023/05/15 01:09:42;;;;;;;2.03;1.67;;;15.60;83.30;;;;;;10908523;32;20045;-73
2023/05/15 01:15:45;;;;;;;2.17;1.23;;;15.70;83.20;;;;;;10907230;32;20042;-73
2023/05/15 01:22:09;;;;;;;2.15;1.52;;;15.70;83.40;;;;;;10906846;32;20073;-73
2023/05/15 01:28:17;;;;;;;2.00;1.23;;;15.70;83.40;;;;;;10907976;32;20019;-73
2023/05/15 01:34:28;;;;;;;3.15;1.00;;;15.70;83.50;;;;;;10905520;32;20419;-73
2023/05/15 01:40:30;;;;;;;1.08;0.88;;;15.70;83.40;;;;;;10907432;32;20023;-73
2023/05/15 01:46:37;;;;;;;1.10;1.00;;;15.60;83.50;;;;;;10906133;32;20023;-73
2023/05/15 01:52:45;;;;;;;1.97;1.73;;;15.50;83.60;;;;;;10890865;32;20350;-73
2023/05/15 01:58:48;;;;;;;3.30;2.10;;;15.50;83.60;;;;;;10905626;32;20016;-73
2023/05/15 02:04:51;;;;;;;2.90;1.50;;;15.60;83.70;;;;;;10904952;32;20042;-73
2023/05/15 02:10:59;;;;;;;3.35;2.17;;;15.60;83.90;;;;;;10906013;32;20049;-73
2023/05/15 02:17:04;;;;;;;2.72;1.85;;;15.60;84.10;;;;;;10893537;32;20019;-73
2023/05/15 02:23:08;;;;;;;2.65;1.60;;;15.60;84.00;;;;;;10903806;32;20050;-72
2023/05/15 02:29:23;;;;;;;2.37;1.70;;;15.50;83.80;;;;;;10903048;32;20031;-73
2023/05/15 02:35:55;;;;;;;4.03;2.80;;;15.40;84.00;;;;;;10902939;32;20045;-73
2023/05/15 02:42:00;;;;;;;2.72;1.95;;;15.40;83.80;;;;;;10901739;32;20037;-73
2023/05/15 02:48:04;;;;;;;17.67;2.20;;;15.40;83.80;;;;;;10901851;32;20041;-73
2023/05/15 02:54:07;;;;;;;4.15;1.60;;;15.30;83.80;;;;;;10900836;32;20049;-73
2023/05/15 03:00:10;;;;;;;3.10;1.98;;;15.30;83.80;;;;;;10904224;32;20435;-73
2023/05/15 03:06:12;;;;;;;3.60;1.98;;;15.10;83.80;;;;;;10903330;32;20015;-73
2023/05/15 03:12:15;;;;;;;3.08;1.77;;;15.10;83.90;;;;;;10890106;32;20039;-73
2023/05/15 03:18:17;;;;;;;3.72;2.53;;;15.10;83.90;;;;;;10903778;32;20016;-73
2023/05/15 03:24:20;;;;;;;1.87;1.75;;;15.00;83.90;;;;;;10902644;32;20046;-73
2023/05/15 03:30:22;;;;;;;4.15;3.35;;;15.10;84.00;;;;;;10887236;32;20058;-73
2023/05/15 03:36:24;;;;;;;2.92;1.92;;;15.10;83.90;;;;;;10904604;32;20019;-74
2023/05/15 03:42:26;;;;;;;6.70;3.15;;;15.00;83.80;;;;;;10903364;32;20089;-74
2023/05/15 03:48:29;;;;;;;3.28;2.40;;;15.00;83.90;;;;;;10902847;32;20027;-74
2023/05/15 03:54:31;;;;;;;2.75;2.05;;;15.00;83.90;;;;;;10907139;32;20049;-74
2023/05/15 04:00:33;;;;;;;4.53;2.47;;;15.10;83.90;;;;;;10911150;32;20024;-74
2023/05/15 04:06:35;;;;;;;3.05;2.35;;;15.00;84.20;;;;;;10909768;32;20007;-74
2023/05/15 04:12:37;;;;;;;2.45;2.15;;;15.00;84.30;;;;;;10907228;32;20053;-74
2023/05/15 04:18:39;;;;;;;3.25;2.10;;;14.90;84.30;;;;;;10907010;32;20041;-74
2023/05/15 04:24:41;;;;;;;5.55;3.87;;;14.90;84.40;;;;;;10905198;32;20023;-74
2023/05/15 04:30:43;;;;;;;3.28;2.42;;;14.90;84.20;;;;;;10909500;32;20023;-74
2023/05/15 04:36:46;;;;;;;1.65;1.48;;;14.70;84.20;;;;;;10909897;32;20014;-74
2023/05/15 04:42:48;;;;;;;5.78;3.55;;;14.70;84.40;;;;;;10907345;32;20011;-73
2023/05/15 04:48:50;;;;;;;7.53;3.87;;;14.60;84.40;;;;;;10894223;32;20104;-73
2023/05/15 04:54:54;;;;;;;2.42;2.00;;;14.70;84.40;;;;;;10905183;32;20020;-73
2023/05/15 05:00:56;;;;;;;4.07;2.87;;;14.80;84.30;;;;;;10907444;32;20235;-73
2023/05/15 05:07:04;;;;;;;3.00;2.17;;;14.80;84.30;;;;;;10904932;32;20015;-73
2023/05/15 05:13:06;;;;;;;2.62;1.95;;;14.70;84.30;;;;;;10907928;32;20385;-73
2023/05/15 05:19:09;;;;;;;3.03;2.20;;;14.80;84.20;;;;;;10905733;32;20061;-73
2023/05/15 05:25:11;;;;;;;3.75;2.40;;;14.80;84.30;;;;;;10869642;32;20019;-73
2023/05/15 05:31:14;;;;;;;4.55;2.67;;;14.90;84.50;;;;;;10867326;32;20046;-73
2023/05/15 05:37:15;;;;;;;6.10;4.35;;;14.80;84.40;;;;;;10866259;32;20019;-72
2023/05/15 05:43:18;;;;;;;6.50;4.22;;;14.80;84.30;;;;;;10870101;32;20326;-73
2023/05/15 05:49:20;;;;;;;6.47;4.40;;;14.80;84.20;;;;;;10867863;32;20046;-73
2023/05/15 05:55:22;;;;;;;4.00;2.83;;;14.80;84.30;;;;;;10868428;32;20023;-73
2023/05/15 06:01:24;;;;;;;6.55;4.68;;;15.00;84.40;;;;;;10866704;32;20568;-73
2023/05/15 06:07:26;;;;;;;1.95;1.48;;;15.20;84.00;;;;;;10897325;32;20019;-73
2023/05/15 06:13:28;;;;;;;8.52;6.78;;;15.20;83.90;;;;;;10908046;32;20049;-72
2023/05/15 06:19:31;;;;;;;7.85;4.85;;;15.30;83.60;;;;;;10902644;32;20015;-73
2023/05/15 06:25:33;;;;;;;6.78;5.40;;;15.50;83.40;;;;;;10877695;32;20046;-72
2023/05/15 06:31:35;;;;;;;2.92;2.42;;;15.50;83.00;;;;;;10868991;32;20307;-73
2023/05/15 06:37:37;;;;;;;5.28;3.30;;;15.60;83.10;;;;;;10867461;32;20042;-73
2023/05/15 06:43:39;;;;;;;5.28;4.03;;;15.80;82.70;;;;;;10852724;32;20015;-74
2023/05/15 06:49:41;;;;;;;6.65;4.68;;;16.00;82.70;;;;;;10867458;32;20058;-73
2023/05/15 06:55:43;;;;;;;6.20;3.60;;;16.20;82.40;;;;;;10904041;32;20054;-73
2023/05/15 07:01:45;;;;;;;8.75;3.78;;;16.30;82.60;;;;;;10905178;32;20046;-73
2023/05/15 07:07:47;;;;;;;4.55;3.25;;;16.40;82.30;;;;;;10902803;32;20438;-73
2023/05/15 07:13:51;;;;;;;5.85;3.15;;;16.40;82.20;;;;;;10903599;32;20020;-73
2023/05/15 07:19:53;;;;;;;4.78;3.60;;;16.30;82.30;;;;;;10903398;32;20066;-74
2023/05/15 07:25:55;;;;;;;5.37;3.45;;;16.50;82.30;;;;;;10896699;32;20035;-73
2023/05/15 07:31:57;;;;;;;12.68;6.18;;;16.60;82.10;;;;;;10907581;32;20042;-73
2023/05/15 07:37:59;;;;;;;6.30;4.50;;;16.60;82.00;;;;;;10909003;32;20050;-73
2023/05/15 07:44:01;;;;;;;5.65;4.20;;;16.60;81.80;;;;;;10911807;32;20015;-73
2023/05/15 07:50:03;;;;;;;5.60;4.62;;;16.70;81.70;;;;;;10705240;27;6934048;-74
2023/05/15 07:56:05;;;;;;;6.35;4.05;;;16.80;81.50;;;;;;10910512;32;20325;-72
2023/05/15 08:02:07;;;;;;;5.95;4.32;;;17.00;81.30;;;;;;10910222;32;20077;-73
2023/05/15 08:08:09;;;;;;;7.70;5.57;;;17.10;81.10;;;;;;10910363;32;20050;-73
2023/05/15 08:14:11;;;;;;;6.45;4.57;;;17.20;80.90;;;;;;10910660;32;20006;-73
2023/05/15 08:20:13;;;;;;;8.30;6.47;;;17.30;80.90;;;;;;10909033;32;20101;-74
2023/05/15 08:26:15;;;;;;;10.50;8.48;;;17.30;80.40;;;;;;10909404;32;20318;-72
2023/05/15 08:32:18;;;;;;;3.42;2.40;;;17.40;80.80;;;;;;10909637;32;20081;-73
2023/05/15 08:38:21;;;;;;;2.85;2.25;;;17.30;80.50;;;;;;10909579;32;20019;-73
2023/05/15 08:44:23;;;;;;;7.68;5.22;;;17.50;80.10;;;;;;10909443;32;20334;-74
2023/05/15 08:50:26;;;;;;;8.00;5.78;;;17.70;80.10;;;;;;10905476;32;20058;-72
2023/05/15 08:56:28;;;;;;;9.35;6.07;;;17.80;79.50;;;;;;10894557;32;20062;-73
2023/05/15 09:02:30;;;;;;;8.52;5.85;;;17.90;79.30;;;;;;10903418;32;20027;-70
2023/05/15 09:08:33;;;;;;;6.70;5.45;;;18.00;78.90;;;;;;10909029;32;20038;-73
2023/05/15 09:14:35;;;;;;;5.12;3.17;;;18.20;78.90;;;;;;10905128;32;20334;-73
2023/05/15 09:20:37;;;;;;;7.32;4.75;;;18.30;78.60;;;;;;10906059;32;20039;-71
2023/05/15 09:26:40;;;;;;;7.78;3.65;;;18.40;78.40;;;;;;10901650;32;20073;-71
2023/05/15 09:32:43;;;;;;;2.03;1.70;;;18.60;77.60;;;;;;10907147;32;20023;-71
2023/05/15 09:38:48;;;;;;;4.07;2.80;;;18.80;77.20;;;;;;10907451;32;20038;-71
2023/05/15 09:44:50;;;;;;;3.60;2.33;;;18.80;76.90;;;;;;10906392;32;20408;-72
2023/05/15 09:50:53;;;;;;;4.80;2.28;;;18.80;76.30;;;;;;10904288;32;20046;-71
2023/05/15 09:56:56;;;;;;;7.07;4.75;;;18.60;76.90;;;;;;10902682;32;20015;-75
2023/05/15 10:03:04;;;;;;;4.15;2.72;;;18.70;77.10;;;;;;10905545;32;20070;-71
2023/05/15 10:09:06;;;;;;;2.85;2.30;;;19.00;76.90;;;;;;10899773;32;20069;-71
2023/05/15 10:15:09;;;;;;;1.87;1.58;;;18.90;75.70;;;;;;10906825;32;20361;-71
2023/05/15 10:21:12;;;;;;;1.90;1.50;;;19.20;75.80;;;;;;10904817;32;20023;-71
2023/05/15 10:27:15;;;;;;;2.22;1.58;;;19.30;75.30;;;;;;10877127;32;20046;-72
2023/05/15 10:33:19;;;;;;;4.37;2.35;;;19.50;74.80;;;;;;10867288;32;20054;-72
2023/05/15 10:39:22;;;;;;;1.23;1.12;;;19.70;74.60;;;;;;10865673;32;20045;-71
2023/05/15 10:45:25;;;;;;;1.15;1.02;;;19.90;73.00;;;;;;10867072;32;20034;-70
2023/05/15 10:51:31;;;;;;;2.90;1.50;;;20.00;72.70;;;;;;10867905;32;20046;-71
2023/05/15 10:57:34;;;;;;;1.10;0.95;;;19.80;73.20;;;;;;10862837;32;20016;-72
2023/05/15 11:03:38;;;;;;;1.67;1.50;;;20.00;72.90;;;;;;10864464;32;20019;-71
2023/05/15 11:09:41;;;;;;;0.80;0.77;;;19.80;72.90;;;;;;10876145;32;20451;-71
2023/05/15 11:15:46;;;;;;;2.08;1.27;;;19.50;73.50;;;;;;10900830;32;20361;-71
2023/05/15 11:22:14;;;;;;;1.65;1.27;;;19.30;73.80;;;;;;10901414;32;20055;-70
2023/05/15 11:28:24;;;;;;;2.78;1.98;;;19.30;74.10;;;;;;10903533;32;20037;-71
2023/05/15 11:34:33;;;;;;;2.35;1.83;;;19.20;74.40;;;;;;10904403;32;20023;-71
2023/05/15 11:40:57;;;;;;;2.72;1.80;;;19.50;74.20;;;;;;10903844;32;20012;-72
2023/05/15 11:47:00;;;;;;;3.97;2.47;;;20.00;72.60;;;;;;10904057;32;20361;-71
2023/05/15 11:53:04;;;;;;;2.10;1.50;;;20.20;71.90;;;;;;10902215;32;20019;-71
2023/05/15 11:59:08;;;;;;;2.60;1.40;;;20.30;72.20;;;;;;10919891;32;20015;-71
2023/05/15 12:05:10;;;;;;;5.37;2.25;;;20.80;71.00;;;;;;10925513;32;20019;-72
2023/05/15 12:11:13;;;;;;;5.72;1.92;;;21.40;69.70;;;;;;10942099;32;20035;-72
2023/05/15 12:17:15;;;;;;;3.75;2.25;;;21.80;69.90;;;;;;10948029;32;20045;-73
2023/05/15 12:23:19;;;;;;;1.45;1.10;;;22.00;68.90;;;;;;10948000;32;20404;-70
2023/05/15 12:29:21;;;;;;;2.85;1.40;;;22.10;68.80;;;;;;10945373;32;20034;-71
2023/05/15 12:35:24;;;;;;;3.08;1.35;;;22.30;68.30;;;;;;10948242;32;20046;-73
2023/05/15 12:41:30;;;;;;;2.28;1.02;;;22.00;68.40;;;;;;10946267;32;20061;-70
2023/05/15 12:47:32;;;;;;;1.37;1.20;;;22.00;67.90;;;;;;10945014;32;20023;-71
2023/05/15 12:53:35;;;;;;;2.28;1.65;;;21.80;67.70;;;;;;10945553;32;20041;-71
2023/05/15 12:59:39;;;;;;;1.90;1.12;;;21.80;68.90;;;;;;10944748;32;20018;-71
2023/05/15 13:05:44;;;;;;;1.42;1.23;;;21.80;69.00;;;;;;10946100;32;20389;-71
2023/05/15 13:11:46;;;;;;;2.67;1.52;;;21.60;68.60;;;;;;10942298;32;20026;-71
2023/05/15 13:18:10;;;;;;;2.17;1.02;;;21.40;68.60;;;;;;10946045;32;20014;-70
2023/05/15 13:24:12;;;;;;;2.28;1.37;;;21.70;67.50;;;;;;10927647;32;20027;-70
2023/05/15 13:30:15;;;;;;;4.90;1.77;;;21.80;66.60;;;;;;10907847;32;20011;-73
2023/05/15 13:36:17;;;;;;;0.77;0.62;;;21.90;66.30;;;;;;10896489;32;20054;-73
2023/05/15 13:42:19;;;;;;;1.83;1.23;;;22.00;66.50;;;;;;10900508;32;20067;-70
2023/05/15 13:48:21;;;;;;;1.98;1.35;;;22.10;67.00;;;;;;10901957;32;20019;-71
2023/05/15 13:54:23;;;;;;;1.75;1.05;;;22.10;67.20;;;;;;10897696;32;20019;-70
2023/05/15 14:00:25;;;;;;;2.05;0.80;;;22.10;66.10;;;;;;10901084;32;20023;-70
2023/05/15 14:06:29;;;;;;;2.05;1.12;;;22.20;65.30;;;;;;10895821;32;20027;-71
2023/05/15 14:12:31;;;;;;;2.35;1.42;;;22.20;66.10;;;;;;10898597;32;20103;-70
2023/05/15 14:18:34;;;;;;;2.10;1.20;;;22.10;65.60;;;;;;10900587;32;20027;-73
2023/05/15 14:24:36;;;;;;;2.08;1.12;;;22.20;66.00;;;;;;10904767;32;20357;-75
2023/05/15 14:30:38;;;;;;;0.80;0.50;;;22.10;67.60;;;;;;10898840;32;20035;-73
2023/05/15 14:36:40;;;;;;;0.88;0.73;;;22.00;68.60;;;;;;10890730;32;20050;-73
2023/05/15 14:42:42;;;;;;;1.40;0.80;;;22.10;69.30;;;;;;10904289;32;20015;-74
2023/05/15 14:48:44;;;;;;;0.68;0.52;;;22.10;68.50;;;;;;10903371;32;20390;-71
2023/05/15 14:54:46;;;;;;;1.52;0.73;;;22.10;67.60;;;;;;10903921;32;20019;-72
2023/05/15 15:00:48;;;;;;;0.68;0.30;;;22.20;66.40;;;;;;10903970;32;20042;-72
2023/05/15 15:06:50;;;;;;;0.35;0.30;;;22.20;65.30;;;;;;10903005;32;20043;-72
2023/05/15 15:12:52;;;;;;;0.52;0.37;;;22.30;64.50;;;;;;10902669;32;20050;-72
2023/05/15 15:18:54;;;;;;;0.65;0.40;;;22.50;65.00;;;;;;10903522;32;20402;-72
2023/05/15 15:24:56;;;;;;;1.15;0.60;;;22.60;64.30;;;;;;10903382;32;20397;-70
2023/05/15 15:30:59;;;;;;;2.10;0.28;;;22.60;64.00;;;;;;10902909;32;20061;-71
2023/05/15 15:37:01;;;;;;;0.30;0.30;;;22.70;63.30;;;;;;10903314;32;20466;-72
2023/05/15 15:43:03;;;;;;;0.98;0.40;;;22.80;62.70;;;;;;10905082;32;20012;-75
2023/05/15 15:49:06;;;;;;;0.45;0.25;;;22.90;62.90;;;;;;10909097;32;20023;-70
2023/05/15 15:55:08;;;;;;;0.65;0.37;;;22.80;63.70;;;;;;10945116;27;20065;-71
2023/05/15 16:01:10;;;;;;;0.35;0.22;;;22.90;63.40;;;;;;10947649;32;20081;-70
2023/05/15 16:07:12;;;;;;;1.50;0.50;;;23.00;62.60;;;;;;10946147;32;20041;-70
2023/05/15 16:13:14;;;;;;;1.12;0.50;;;23.00;61.70;;;;;;10947189;32;20041;-70
2023/05/15 16:19:16;;;;;;;0.22;0.22;;;23.20;61.90;;;;;;10946998;32;20018;-70
2023/05/15 16:25:19;;;;;;;1.95;0.68;;;23.30;61.90;;;;;;10944173;32;20053;-71
2023/05/15 16:31:21;;;;;;;0.25;0.25;;;23.30;61.40;;;;;;10945688;32;20057;-71
2023/05/15 16:37:23;;;;;;;4.55;0.80;;;23.30;61.20;;;;;;10942928;32;20046;-71
2023/05/15 16:43:25;;;;;;;0.47;0.40;;;23.30;61.50;;;;;;10932035;32;20030;-70
2023/05/15 16:49:27;;;;;;;0.25;0.25;;;23.30;61.60;;;;;;10940659;32;20408;-71
2023/05/15 16:55:30;;;;;;;0.37;0.37;;;23.30;61.80;;;;;;10942980;32;20307;-70
2023/05/15 17:01:32;;;;;;;0.17;0.17;;;23.30;62.30;;;;;;10943026;32;20015;-71
2023/05/15 17:07:35;;;;;;;0.85;0.30;;;23.10;62.50;;;;;;10943702;32;20061;-71
2023/05/15 17:13:37;;;;;;;1.95;0.47;;;22.80;63.10;;;;;;10943227;32;20195;-71
2023/05/15 17:19:39;;;;;;;0.40;0.30;;;22.60;63.70;;;;;;10944526;32;20462;-71
2023/05/15 17:25:41;;;;;;;1.27;0.50;;;22.40;64.00;;;;;;10938378;32;20023;-71
2023/05/15 17:31:45;;;;;;;0.73;0.73;;;22.30;64.40;;;;;;10942912;32;20022;-70
2023/05/15 17:37:47;;;;;;;0.50;0.50;;;22.40;64.30;;;;;;10941596;32;20317;-71
2023/05/15 17:43:49;;;;;;;3.78;0.95;;;22.70;64.00;;;;;;10942119;32;20059;-71
2023/05/15 17:49:51;;;;;;;1.25;0.70;;;24.20;62.20;;;;;;10938220;32;20058;-71
2023/05/15 17:55:54;;;;;;;0.43;0.40;;;25.80;59.60;;;;;;10943234;32;20022;-71
2023/05/15 18:01:56;;;;;;;0.45;0.40;;;26.30;58.70;;;;;;10940649;32;20338;-71
2023/05/15 18:08:02;;;;;;;1.75;0.68;;;25.00;61.40;;;;;;10942143;32;20011;-71
2023/05/15 18:14:04;;;;;;;1.27;0.80;;;23.70;64.50;;;;;;10942409;32;20053;-71
2023/05/15 18:20:07;;;;;;;0.57;0.57;;;22.90;66.40;;;;;;10926550;32;20049;-71
2023/05/15 18:26:09;;;;;;;0.62;0.52;;;22.40;67.30;;;;;;10939996;32;20054;-71
2023/05/15 18:32:12;;;;;;;0.50;0.50;;;22.20;67.70;;;;;;10942020;32;20015;-71
2023/05/15 18:38:14;;;;;;;1.05;0.40;;;21.90;68.10;;;;;;10941937;32;20011;-71
2023/05/15 18:44:16;;;;;;;1.30;0.52;;;21.80;68.50;;;;;;10939116;32;20045;-71
2023/05/15 18:50:18;;;;;;;0.62;0.60;;;21.60;68.70;;;;;;10937663;32;20027;-71
2023/05/15 18:56:21;;;;;;;0.25;0.25;;;21.50;69.00;;;;;;10941269;32;20030;-71
2023/05/15 19:02:23;;;;;;;0.77;0.70;;;21.40;69.40;;;;;;10938784;32;20061;-71
2023/05/15 19:08:25;;;;;;;1.15;0.55;;;21.30;69.70;;;;;;10937437;32;20333;-71
2023/05/15 19:14:28;;;;;;;0.82;0.50;;;21.20;69.90;;;;;;10937360;32;20344;-71
2023/05/15 19:20:30;;;;;;;0.50;0.45;;;21.10;70.20;;;;;;10946725;32;20027;-71
2023/05/15 19:26:32;;;;;;;0.65;0.47;;;20.90;70.80;;;;;;10949229;32;20309;-71
2023/05/15 19:32:35;;;;;;;0.80;0.50;;;20.80;71.10;;;;;;10949435;32;20455;-71
2023/05/15 19:38:37;;;;;;;0.62;0.62;;;20.80;71.40;;;;;;10948648;32;20045;-71
2023/05/15 19:44:39;;;;;;;1.87;0.75;;;20.70;71.60;;;;;;10947553;32;20051;-71
2023/05/15 19:50:44;;;;;;;1.23;0.68;;;20.60;72.60;;;;;;10946855;32;20053;-70
2023/05/15 19:56:46;;;;;;;0.68;0.60;;;20.50;73.10;;;;;;10948276;32;20057;-71
2023/05/15 20:02:48;;;;;;;0.85;0.85;;;20.40;73.40;;;;;;10947924;32;20022;-71
2023/05/15 20:08:50;;;;;;;1.60;0.82;;;20.30;74.10;;;;;;10947828;32;20397;-71
2023/05/15 20:14:53;;;;;;;0.73;0.68;;;20.30;74.20;;;;;;10932394;32;20065;-71
2023/05/15 20:20:55;;;;;;;3.85;2.05;;;20.20;74.40;;;;;;10932115;32;20389;-70
2023/05/15 20:26:57;;;;;;;3.65;2.30;;;20.20;74.50;;;;;;10946593;32;20019;-70
2023/05/15 20:32:59;;;;;;;2.00;1.33;;;20.10;74.60;;;;;;10931372;32;20432;-70
2023/05/15 20:39:04;;;;;;;3.65;2.00;;;20.10;74.60;;;;;;10930948;32;20026;-71
2023/05/15 20:45:08;;;;;;;1.77;1.20;;;20.00;74.70;;;;;;10944704;32;20026;-71
2023/05/15 20:51:10;;;;;;;2.08;1.77;;;20.00;75.20;;;;;;10906193;32;20111;-71
2023/05/15 20:57:12;;;;;;;1.55;1.02;;;19.90;75.40;;;;;;10906316;32;20031;-71
2023/05/15 21:03:14;;;;;;;1.85;1.20;;;19.90;75.90;;;;;;10908241;32;20042;-71
2023/05/15 21:09:16;;;;;;;1.83;1.65;;;19.80;76.40;;;;;;10908049;32;20042;-70
2023/05/15 21:15:18;;;;;;;2.50;1.10;;;19.80;76.40;;;;;;10905664;32;20049;-71
2023/05/15 21:21:21;;;;;;;1.55;1.00;;;19.80;76.40;;;;;;10907019;32;20023;-71
2023/05/15 21:27:39;;;;;;;1.98;1.30;;;19.70;76.70;;;;;;10905238;32;20053;-73
2023/05/15 21:33:41;;;;;;;0.95;0.90;;;19.70;76.60;;;;;;10906634;32;20065;-71
2023/05/15 21:39:43;;;;;;;1.20;1.08;;;19.70;76.80;;;;;;10891491;32;20054;-70
2023/05/15 21:45:45;;;;;;;1.77;1.37;;;19.70;77.10;;;;;;10892593;32;20402;-73
2023/05/15 21:51:47;;;;;;;1.42;0.88;;;19.70;77.20;;;;;;10905454;32;20050;-70
2023/05/15 21:57:49;;;;;;;2.17;0.90;;;19.60;77.60;;;;;;10905908;32;20338;-70
2023/05/15 22:03:51;;;;;;;2.58;1.52;;;19.60;77.70;;;;;;10927226;32;20023;-71
2023/05/15 22:09:53;;;;;;;1.85;1.27;;;19.70;77.80;;;;;;10928617;32;20053;-73
2023/05/15 22:16:02;;;;;;;3.03;1.30;;;19.60;78.10;;;;;;10930746;32;20023;-73
2023/05/15 22:22:04;;;;;;;3.37;1.70;;;19.50;78.20;;;;;;10942797;32;20027;-73
2023/05/15 22:28:06;;;;;;;2.75;1.75;;;19.50;78.60;;;;;;10940507;32;20023;-73
2023/05/15 22:34:08;;;;;;;1.62;1.25;;;19.50;78.70;;;;;;10942464;32;20023;-73
2023/05/15 22:40:15;;;;;;;1.55;1.42;;;19.40;78.90;;;;;;10942244;32;20018;-73
2023/05/15 22:46:46;;;;;;;2.22;1.83;;;19.40;79.00;;;;;;10941044;32;20432;-73
2023/05/15 22:52:50;;;;;;;1.30;1.20;;;19.40;79.00;;;;;;10927508;32;20413;-73
2023/05/15 22:58:53;;;;;;;2.05;1.45;;;19.30;79.10;;;;;;10938270;32;20030;-72
2023/05/15 23:05:15;;;;;;;1.75;1.27;;;19.30;79.20;;;;;;10941672;32;20019;-73
2023/05/15 23:11:17;;;;;;;3.42;1.67;;;19.30;79.40;;;;;;10941492;32;20326;-74
2023/05/15 23:17:20;;;;;;;2.17;1.08;;;19.30;79.40;;;;;;10927532;32;20061;-73
2023/05/15 23:23:21;;;;;;;1.12;1.02;;;19.20;79.50;;;;;;10941329;32;20364;-73
2023/05/15 23:29:23;;;;;;;2.12;1.33;;;19.10;79.90;;;;;;10927725;32;20019;-72
2023/05/15 23:35:26;;;;;;;2.37;1.33;;;19.20;80.00;;;;;;10938902;32;20053;-72
2023/05/15 23:41:32;;;;;;;3.17;1.40;;;19.10;80.30;;;;;;10940868;32;20019;-73
2023/05/15 23:47:35;;;;;;;2.83;0.95;;;19.10;80.30;;;;;;10940811;32;20303;-72
2023/05/15 23:53:37;;;;;;;1.92;1.30;;;19.10;80.40;;;;;;10919744;27;20031;-73
2023/05/15 23:59:39;;;;;;;2.62;1.83;;;19.00;80.10;;;;;;10903047;32;20015;-74
